Harrisonburg, VA

5:47 AM EST on December 22, 2014 (GMT -0500)
Charlottesville-Albemarle | Change Station
CLOSE
Current Station
Airport
Location: Charlottesville,
Elevation: 640 ft
Nearby Weather Stations
Active Advisory: Freezing Rain Advisory

Elev 640 ft 38.14 °N, 78.46 °W | Updated 54 minutes ago

Overcast
Overcast
33 °F
Feels Like 29 °F
N
5
Wind Variable Wind from ENE

Today
High -- | Low -- °F
--% Chance of Precip.
Yesterday
High -- | Low -- °F
Precip. -- in
7:29 AM 4:58 PM
New Moon, 0% visible
Pressure 30.25 in
Visibility 9.0 miles
Clouds Overcast 3800 ft
Windchill 29 °F
Dew Point 26 °F
Humidity 75%
Rainfall 0.00 in
Snow Depth Not available.
UV 0 out of 12
Pollen .10 out of 12
Air Quality Not available.
Flu Activity Not available.
METAR KCHO 220953Z AUTO 06004KT 9SM OVC038 01/M03 A3024 RMK AO2 SLP244 T00061033

More Conditions Fewer Conditions

Pressure 30.25 in
Visibility 9.0 miles
Clouds Overcast 3800 ft
Windchill 29 °F
Dew Point 26 °F
Humidity 75%
Rainfall 0.00 in
Snow Depth Not available.
UV 0 out of 12
Pollen .10 out of 12
Air Quality Not available.
Flu Activity Not available.
METAR KCHO 220953Z AUTO 06004KT 9SM OVC038 01/M03 A3024 RMK AO2 SLP244 T00061033

More Conditions Fewer Conditions

10-Day Weather Forecast

Almanac

Astronomy

Dec. 22, 2014 Rise Set
Actual Time
Civil Twilight
Nautical Twilight
Astronomical Twilight
Moon
Length of Visible Light
Length of Day
Tomorrow will be .
, % of the Moon is Illuminated

Today's Extremes

State Highs State Lows

Community

WunderPhotos

Upload Photos

1,779,583 photos uploaded!

WunderBlogs® & News

Nearby

Air Quality

  Air Quality AQ Index Pollutant
Not available.

Snow Depth

Station Depth Elevation

Earthquake Activity

City Distance Mag. Time & Date
Minimum magnitude displayed is 2.5.

Coastal Water Temperatures

Place Temperature

Nearby Weather Stations